sensor_id;sensor_type;location;lat;lon;timestamp;pressure;altitude;pressure_sealevel;temperature;humidity
64292;BME280;50628;51.008;13.658;2023-04-19T00:02:01;100531.50;;;8.79;100.00
64292;BME280;50628;51.008;13.658;2023-04-19T00:07:02;100529.47;;;8.99;100.00
64292;BME280;50628;51.008;13.658;2023-04-19T00:12:06;100521.59;;;8.72;100.00
64292;BME280;50628;51.008;13.658;2023-04-19T00:17:08;100523.63;;;8.66;100.00
64292;BME280;50628;51.008;13.658;2023-04-19T00:22:11;100508.16;;;8.94;100.00
64292;BME280;50628;51.008;13.658;2023-04-19T00:27:14;100502.88;;;8.95;100.00
64292;BME280;50628;51.008;13.658;2023-04-19T00:32:16;100501.03;;;8.69;100.00
64292;BME280;50628;51.008;13.658;2023-04-19T00:37:18;100509.09;;;8.93;100.00
64292;BME280;50628;51.008;13.658;2023-04-19T00:42:21;100504.47;;;8.83;100.00
64292;BME280;50628;51.008;13.658;2023-04-19T00:47:23;100502.06;;;8.95;100.00
64292;BME280;50628;51.008;13.658;2023-04-19T00:52:25;100487.09;;;8.98;100.00
64292;BME280;50628;51.008;13.658;2023-04-19T00:57:30;100490.56;;;8.70;100.00
64292;BME280;50628;51.008;13.658;2023-04-19T01:02:32;100480.66;;;8.62;100.00
64292;BME280;50628;51.008;13.658;2023-04-19T01:07:33;100476.75;;;8.55;100.00
64292;BME280;50628;51.008;13.658;2023-04-19T01:12:37;100478.75;;;8.21;100.00
64292;BME280;50628;51.008;13.658;2023-04-19T01:17:39;100468.16;;;8.10;100.00
64292;BME280;50628;51.008;13.658;2023-04-19T01:22:42;100468.22;;;7.94;100.00
64292;BME280;50628;51.008;13.658;2023-04-19T01:27:44;100469.31;;;7.90;100.00
64292;BME280;50628;51.008;13.658;2023-04-19T01:32:46;100453.59;;;7.93;100.00
64292;BME280;50628;51.008;13.658;2023-04-19T01:37:49;100463.22;;;8.06;100.00
64292;BME280;50628;51.008;13.658;2023-04-19T01:42:52;100455.09;;;7.97;100.00
64292;BME280;50628;51.008;13.658;2023-04-19T01:47:54;100463.38;;;7.88;100.00
64292;BME280;50628;51.008;13.658;2023-04-19T01:52:58;100459.31;;;7.84;100.00
64292;BME280;50628;51.008;13.658;2023-04-19T01:58:00;100456.50;;;7.73;100.00
64292;BME280;50628;51.008;13.658;2023-04-19T02:03:02;100451.31;;;7.73;100.00
64292;BME280;50628;51.008;13.658;2023-04-19T02:08:06;100454.72;;;7.73;100.00
64292;BME280;50628;51.008;13.658;2023-04-19T02:13:07;100447.75;;;7.59;100.00
64292;BME280;50628;51.008;13.658;2023-04-19T02:18:09;100440.38;;;7.68;100.00
64292;BME280;50628;51.008;13.658;2023-04-19T02:23:15;100442.50;;;7.61;100.00
64292;BME280;50628;51.008;13.658;2023-04-19T02:28:17;100443.41;;;7.60;100.00
64292;BME280;50628;51.008;13.658;2023-04-19T02:33:21;100444.72;;;7.67;100.00
64292;BME280;50628;51.008;13.658;2023-04-19T02:38:24;100437.84;;;7.82;100.00
64292;BME280;50628;51.008;13.658;2023-04-19T02:43:27;100438.75;;;7.81;100.00
64292;BME280;50628;51.008;13.658;2023-04-19T02:48:29;100432.59;;;7.68;100.00
64292;BME280;50628;51.008;13.658;2023-04-19T02:53:32;100439.09;;;7.45;100.00
64292;BME280;50628;51.008;13.658;2023-04-19T02:58:34;100435.06;;;7.09;100.00
64292;BME280;50628;51.008;13.658;2023-04-19T03:03:39;100427.19;;;7.10;100.00
64292;BME280;50628;51.008;13.658;2023-04-19T03:08:42;100432.78;;;7.19;100.00
64292;BME280;50628;51.008;13.658;2023-04-19T03:13:44;100427.50;;;7.20;100.00
64292;BME280;50628;51.008;13.658;2023-04-19T03:18:47;100416.66;;;7.29;100.00
64292;BME280;50628;51.008;13.658;2023-04-19T03:23:52;100405.59;;;7.42;100.00
64292;BME280;50628;51.008;13.658;2023-04-19T03:28:55;100390.06;;;6.96;100.00
64292;BME280;50628;51.008;13.658;2023-04-19T03:34:10;100397.84;;;6.96;100.00
64292;BME280;50628;51.008;13.658;2023-04-19T03:39:17;100392.22;;;7.03;100.00
64292;BME280;50628;51.008;13.658;2023-04-19T03:44:23;100383.69;;;7.17;100.00
64292;BME280;50628;51.008;13.658;2023-04-19T03:49:27;100378.78;;;6.97;100.00
64292;BME280;50628;51.008;13.658;2023-04-19T03:54:38;100381.19;;;7.00;100.00
64292;BME280;50628;51.008;13.658;2023-04-19T03:59:46;100373.59;;;6.97;100.00
64292;BME280;50628;51.008;13.658;2023-04-19T04:04:52;100375.63;;;6.91;100.00
64292;BME280;50628;51.008;13.658;2023-04-19T04:09:57;100375.69;;;6.74;100.00
64292;BME280;50628;51.008;13.658;2023-04-19T04:14:59;100369.09;;;6.84;100.00
64292;BME280;50628;51.008;13.658;2023-04-19T04:20:02;100379.53;;;6.83;100.00
64292;BME280;50628;51.008;13.658;2023-04-19T04:25:07;100386.88;;;6.75;100.00
64292;BME280;50628;51.008;13.658;2023-04-19T04:30:12;100381.47;;;6.79;100.00
64292;BME280;50628;51.008;13.658;2023-04-19T04:35:14;100399.56;;;6.63;100.00
64292;BME280;50628;51.008;13.658;2023-04-19T04:40:26;100395.34;;;6.45;100.00
64292;BME280;50628;51.008;13.658;2023-04-19T04:45:28;100387.47;;;6.48;100.00
64292;BME280;50628;51.008;13.658;2023-04-19T04:50:32;100382.88;;;6.53;100.00
64292;BME280;50628;51.008;13.658;2023-04-19T04:55:35;100390.88;;;6.48;100.00
64292;BME280;50628;51.008;13.658;2023-04-19T05:00:37;100389.75;;;6.21;100.00
64292;BME280;50628;51.008;13.658;2023-04-19T05:05:42;100382.88;;;6.20;100.00
64292;BME280;50628;51.008;13.658;2023-04-19T05:10:45;100378.97;;;6.13;100.00
64292;BME280;50628;51.008;13.658;2023-04-19T05:15:48;100374.66;;;6.29;100.00
64292;BME280;50628;51.008;13.658;2023-04-19T05:20:50;100374.44;;;6.49;100.00
64292;BME280;50628;51.008;13.658;2023-04-19T05:25:57;100368.38;;;6.50;100.00
64292;BME280;50628;51.008;13.658;2023-04-19T05:31:01;100382.09;;;6.35;100.00
64292;BME280;50628;51.008;13.658;2023-04-19T05:36:08;100374.31;;;6.19;100.00
64292;BME280;50628;51.008;13.658;2023-04-19T05:41:12;100380.88;;;6.09;100.00
64292;BME280;50628;51.008;13.658;2023-04-19T05:46:14;100378.94;;;6.30;100.00
64292;BME280;50628;51.008;13.658;2023-04-19T05:51:16;100375.78;;;6.41;100.00
64292;BME280;50628;51.008;13.658;2023-04-19T05:56:45;100382.84;;;6.04;100.00
64292;BME280;50628;51.008;13.658;2023-04-19T06:01:48;100383.44;;;6.09;100.00
64292;BME280;50628;51.008;13.658;2023-04-19T06:06:50;100369.34;;;5.99;100.00
64292;BME280;50628;51.008;13.658;2023-04-19T06:11:54;100373.69;;;5.98;100.00
64292;BME280;50628;51.008;13.658;2023-04-19T06:16:57;100378.81;;;6.16;100.00
64292;BME280;50628;51.008;13.658;2023-04-19T06:21:59;100380.00;;;6.26;100.00
64292;BME280;50628;51.008;13.658;2023-04-19T06:27:03;100379.13;;;6.43;100.00
64292;BME280;50628;51.008;13.658;2023-04-19T06:32:05;100369.00;;;6.38;100.00
64292;BME280;50628;51.008;13.658;2023-04-19T06:37:07;100370.44;;;6.60;100.00
64292;BME280;50628;51.008;13.658;2023-04-19T06:42:10;100363.44;;;6.46;100.00
64292;BME280;50628;51.008;13.658;2023-04-19T06:47:12;100377.06;;;6.16;100.00
64292;BME280;50628;51.008;13.658;2023-04-19T06:52:14;100378.47;;;6.55;100.00
64292;BME280;50628;51.008;13.658;2023-04-19T06:57:18;100374.84;;;6.42;100.00
64292;BME280;50628;51.008;13.658;2023-04-19T07:02:19;100367.59;;;6.64;93.45
64292;BME280;50628;51.008;13.658;2023-04-19T07:07:21;100358.44;;;6.75;90.57
64292;BME280;50628;51.008;13.658;2023-04-19T07:12:25;100356.84;;;6.72;94.37
64292;BME280;50628;51.008;13.658;2023-04-19T07:17:27;100339.41;;;6.44;89.99
64292;BME280;50628;51.008;13.658;2023-04-19T07:22:29;100336.59;;;7.10;90.59
64292;BME280;50628;51.008;13.658;2023-04-19T07:27:32;100334.38;;;6.72;76.21
64292;BME280;50628;51.008;13.658;2023-04-19T07:32:34;100328.28;;;6.89;74.52
64292;BME280;50628;51.008;13.658;2023-04-19T07:37:36;100322.47;;;6.86;88.04
64292;BME280;50628;51.008;13.658;2023-04-19T07:42:39;100316.50;;;7.00;83.87
64292;BME280;50628;51.008;13.658;2023-04-19T07:47:41;100317.69;;;6.94;83.92
64292;BME280;50628;51.008;13.658;2023-04-19T07:52:43;100322.59;;;6.83;81.60
64292;BME280;50628;51.008;13.658;2023-04-19T07:57:46;100315.63;;;7.15;89.20
64292;BME280;50628;51.008;13.658;2023-04-19T08:02:48;100321.03;;;6.80;90.24
64292;BME280;50628;51.008;13.658;2023-04-19T08:07:51;100310.19;;;6.74;96.08
64292;BME280;50628;51.008;13.658;2023-04-19T08:12:54;100307.50;;;6.91;100.00
64292;BME280;50628;51.008;13.658;2023-04-19T08:17:56;100311.44;;;6.82;98.49
64292;BME280;50628;51.008;13.658;2023-04-19T08:22:58;100302.75;;;7.44;100.00
64292;BME280;50628;51.008;13.658;2023-04-19T08:28:01;100298.91;;;6.90;99.46
64292;BME280;50628;51.008;13.658;2023-04-19T08:33:03;100293.19;;;7.30;100.00
64292;BME280;50628;51.008;13.658;2023-04-19T08:38:05;100285.53;;;7.43;100.00
64292;BME280;50628;51.008;13.658;2023-04-19T08:43:08;100283.97;;;7.26;100.00
64292;BME280;50628;51.008;13.658;2023-04-19T08:48:11;100284.16;;;7.37;100.00
64292;BME280;50628;51.008;13.658;2023-04-19T08:53:13;100282.28;;;7.25;100.00
64292;BME280;50628;51.008;13.658;2023-04-19T08:58:17;100272.06;;;7.52;100.00
64292;BME280;50628;51.008;13.658;2023-04-19T09:03:19;100263.91;;;7.72;100.00
64292;BME280;50628;51.008;13.658;2023-04-19T09:08:23;100268.09;;;7.75;100.00
64292;BME280;50628;51.008;13.658;2023-04-19T09:13:28;100245.88;;;7.56;100.00
64292;BME280;50628;51.008;13.658;2023-04-19T09:18:30;100246.41;;;7.76;100.00
64292;BME280;50628;51.008;13.658;2023-04-19T09:23:32;100241.91;;;7.79;100.00
64292;BME280;50628;51.008;13.658;2023-04-19T09:28:35;100232.94;;;8.27;100.00
64292;BME280;50628;51.008;13.658;2023-04-19T09:33:37;100231.06;;;8.29;98.15
64292;BME280;50628;51.008;13.658;2023-04-19T09:38:47;100229.22;;;8.31;97.10
64292;BME280;50628;51.008;13.658;2023-04-19T09:43:51;100225.47;;;8.08;99.55
64292;BME280;50628;51.008;13.658;2023-04-19T09:48:53;100215.50;;;8.43;98.29
64292;BME280;50628;51.008;13.658;2023-04-19T09:53:55;100220.72;;;8.56;99.35
64292;BME280;50628;51.008;13.658;2023-04-19T09:58:58;100207.53;;;8.59;99.37
64292;BME280;50628;51.008;13.658;2023-04-19T10:04:03;100213.13;;;8.80;95.81
64292;BME280;50628;51.008;13.658;2023-04-19T10:09:05;100217.50;;;8.92;92.47
64292;BME280;50628;51.008;13.658;2023-04-19T10:14:10;100206.69;;;8.85;91.45
64292;BME280;50628;51.008;13.658;2023-04-19T10:19:14;100198.97;;;8.71;89.04
64292;BME280;50628;51.008;13.658;2023-04-19T10:24:16;100187.41;;;9.15;85.89
64292;BME280;50628;51.008;13.658;2023-04-19T10:35:06;100168.75;;;9.60;84.51
64292;BME280;50628;51.008;13.658;2023-04-19T10:40:09;100174.28;;;8.91;82.35
64292;BME280;50628;51.008;13.658;2023-04-19T10:45:30;100171.84;;;9.65;77.74
64292;BME280;50628;51.008;13.658;2023-04-19T10:50:57;100170.47;;;9.22;76.63
64292;BME280;50628;51.008;13.658;2023-04-19T10:55:59;100165.59;;;9.67;75.19
64292;BME280;50628;51.008;13.658;2023-04-19T11:01:31;100164.22;;;9.38;74.98
64292;BME280;50628;51.008;13.658;2023-04-19T11:06:36;100167.91;;;9.72;74.22
64292;BME280;50628;51.008;13.658;2023-04-19T11:11:39;100158.31;;;8.97;72.89
64292;BME280;50628;51.008;13.658;2023-04-19T11:16:40;100142.31;;;10.03;71.18
64292;BME280;50628;51.008;13.658;2023-04-19T11:21:45;100134.09;;;9.72;69.43
64292;BME280;50628;51.008;13.658;2023-04-19T11:26:48;100139.91;;;9.26;68.97
64292;BME280;50628;51.008;13.658;2023-04-19T11:31:50;100127.03;;;9.74;68.48
64292;BME280;50628;51.008;13.658;2023-04-19T11:36:53;100108.59;;;10.49;67.49
64292;BME280;50628;51.008;13.658;2023-04-19T11:41:55;100108.72;;;10.48;66.72
64292;BME280;50628;51.008;13.658;2023-04-19T11:46:59;100123.00;;;9.94;67.53
64292;BME280;50628;51.008;13.658;2023-04-19T11:52:05;100129.75;;;8.97;99.83
64292;BME280;50628;51.008;13.658;2023-04-19T11:57:07;100121.19;;;9.34;100.00
64292;BME280;50628;51.008;13.658;2023-04-19T12:02:11;100116.19;;;9.80;100.00
64292;BME280;50628;51.008;13.658;2023-04-19T12:07:14;100111.91;;;9.42;100.00
64292;BME280;50628;51.008;13.658;2023-04-19T12:12:30;100109.75;;;9.36;100.00
64292;BME280;50628;51.008;13.658;2023-04-19T12:17:32;100113.16;;;9.00;89.38
64292;BME280;50628;51.008;13.658;2023-04-19T12:22:35;100101.38;;;9.32;85.20
64292;BME280;50628;51.008;13.658;2023-04-19T12:27:39;100110.00;;;9.94;77.46
64292;BME280;50628;51.008;13.658;2023-04-19T12:32:41;100106.69;;;9.92;76.53
64292;BME280;50628;51.008;13.658;2023-04-19T12:37:44;100089.25;;;10.65;73.40
64292;BME280;50628;51.008;13.658;2023-04-19T12:42:47;100084.66;;;10.09;73.54
64292;BME280;50628;51.008;13.658;2023-04-19T12:47:49;100090.25;;;9.91;77.24
64292;BME280;50628;51.008;13.658;2023-04-19T12:52:52;100085.72;;;10.30;74.32
64292;BME280;50628;51.008;13.658;2023-04-19T12:57:54;100082.34;;;10.41;73.76
64292;BME280;50628;51.008;13.658;2023-04-19T13:02:56;100069.09;;;10.20;73.97
64292;BME280;50628;51.008;13.658;2023-04-19T13:07:59;100070.84;;;10.08;74.43
64292;BME280;50628;51.008;13.658;2023-04-19T13:13:01;100061.94;;;10.81;73.88
64292;BME280;50628;51.008;13.658;2023-04-19T13:18:03;100051.84;;;10.88;72.05
64292;BME280;50628;51.008;13.658;2023-04-19T13:23:06;100038.84;;;10.19;75.05
64292;BME280;50628;51.008;13.658;2023-04-19T13:28:08;100043.88;;;10.09;75.70
64292;BME280;50628;51.008;13.658;2023-04-19T13:33:10;100036.91;;;11.90;67.67
64292;BME280;50628;51.008;13.658;2023-04-19T13:38:13;100024.38;;;12.47;64.42
64292;BME280;50628;51.008;13.658;2023-04-19T13:43:15;100015.28;;;12.20;62.66
64292;BME280;50628;51.008;13.658;2023-04-19T13:48:17;99994.75;;;12.88;60.30
64292;BME280;50628;51.008;13.658;2023-04-19T13:53:20;99986.78;;;13.59;58.31
64292;BME280;50628;51.008;13.658;2023-04-19T13:58:23;99985.50;;;12.02;59.67
64292;BME280;50628;51.008;13.658;2023-04-19T14:03:25;99995.63;;;11.19;62.25
64292;BME280;50628;51.008;13.658;2023-04-19T14:08:28;100006.34;;;11.26;64.64
64292;BME280;50628;51.008;13.658;2023-04-19T14:13:30;100021.38;;;9.97;84.83
64292;BME280;50628;51.008;13.658;2023-04-19T14:18:32;100041.09;;;7.99;100.00
64292;BME280;50628;51.008;13.658;2023-04-19T14:23:35;100045.25;;;7.75;100.00
64292;BME280;50628;51.008;13.658;2023-04-19T14:28:37;100051.38;;;7.74;100.00
64292;BME280;50628;51.008;13.658;2023-04-19T14:33:39;100060.78;;;7.75;100.00
64292;BME280;50628;51.008;13.658;2023-04-19T14:38:42;100059.63;;;7.66;100.00
64292;BME280;50628;51.008;13.658;2023-04-19T14:43:44;100058.44;;;7.57;100.00
64292;BME280;50628;51.008;13.658;2023-04-19T14:48:46;100052.25;;;7.46;100.00
64292;BME280;50628;51.008;13.658;2023-04-19T14:53:50;100058.97;;;7.63;100.00
64292;BME280;50628;51.008;13.658;2023-04-19T14:58:52;100063.56;;;7.45;100.00
64292;BME280;50628;51.008;13.658;2023-04-19T15:03:54;100068.94;;;7.42;100.00
64292;BME280;50628;51.008;13.658;2023-04-19T15:08:57;100069.75;;;7.42;100.00
64292;BME280;50628;51.008;13.658;2023-04-19T15:13:59;100073.75;;;7.33;100.00
64292;BME280;50628;51.008;13.658;2023-04-19T15:19:00;100070.91;;;6.81;100.00
64292;BME280;50628;51.008;13.658;2023-04-19T15:24:05;100085.75;;;6.48;100.00
64292;BME280;50628;51.008;13.658;2023-04-19T15:29:08;100095.53;;;6.43;100.00
64292;BME280;50628;51.008;13.658;2023-04-19T15:34:09;100089.09;;;6.20;100.00
64292;BME280;50628;51.008;13.658;2023-04-19T15:39:13;100103.16;;;6.15;100.00
64292;BME280;50628;51.008;13.658;2023-04-19T15:44:15;100101.47;;;6.29;100.00
64292;BME280;50628;51.008;13.658;2023-04-19T15:49:16;100090.56;;;6.24;100.00
64292;BME280;50628;51.008;13.658;2023-04-19T15:54:20;100085.78;;;6.63;100.00
64292;BME280;50628;51.008;13.658;2023-04-19T15:59:22;100098.03;;;6.59;100.00
64292;BME280;50628;51.008;13.658;2023-04-19T16:04:24;100095.34;;;6.46;100.00
64292;BME280;50628;51.008;13.658;2023-04-19T16:09:27;100099.69;;;6.46;100.00
64292;BME280;50628;51.008;13.658;2023-04-19T16:14:29;100091.22;;;6.58;100.00
64292;BME280;50628;51.008;13.658;2023-04-19T16:19:31;100088.06;;;6.53;100.00
64292;BME280;50628;51.008;13.658;2023-04-19T16:24:34;100075.53;;;6.76;100.00
64292;BME280;50628;51.008;13.658;2023-04-19T16:29:36;100079.84;;;6.61;100.00
64292;BME280;50628;51.008;13.658;2023-04-19T16:34:38;100074.47;;;6.49;100.00
64292;BME280;50628;51.008;13.658;2023-04-19T16:39:42;100065.28;;;6.74;100.00
64292;BME280;50628;51.008;13.658;2023-04-19T16:44:43;100061.56;;;6.92;100.00
64292;BME280;50628;51.008;13.658;2023-04-19T16:49:45;100055.75;;;6.75;100.00
64292;BME280;50628;51.008;13.658;2023-04-19T16:54:50;100044.66;;;6.72;100.00
64292;BME280;50628;51.008;13.658;2023-04-19T16:59:52;100041.25;;;6.72;100.00
64292;BME280;50628;51.008;13.658;2023-04-19T17:04:54;100046.06;;;6.78;100.00
64292;BME280;50628;51.008;13.658;2023-04-19T17:09:58;100043.84;;;6.86;100.00
64292;BME280;50628;51.008;13.658;2023-04-19T17:15:00;100046.94;;;6.48;100.00
64292;BME280;50628;51.008;13.658;2023-04-19T17:20:02;100048.75;;;6.32;100.00
64292;BME280;50628;51.008;13.658;2023-04-19T17:25:07;100040.66;;;6.38;100.00
64292;BME280;50628;51.008;13.658;2023-04-19T17:30:10;100038.59;;;6.29;100.00
64292;BME280;50628;51.008;13.658;2023-04-19T17:35:13;100040.72;;;6.22;100.00
64292;BME280;50628;51.008;13.658;2023-04-19T17:40:16;100034.41;;;6.12;100.00
64292;BME280;50628;51.008;13.658;2023-04-19T17:45:18;100040.75;;;6.37;100.00
64292;BME280;50628;51.008;13.658;2023-04-19T17:50:20;100033.75;;;6.09;100.00
64292;BME280;50628;51.008;13.658;2023-04-19T17:55:23;100037.97;;;6.25;100.00
64292;BME280;50628;51.008;13.658;2023-04-19T18:00:25;100037.66;;;6.16;100.00
64292;BME280;50628;51.008;13.658;2023-04-19T18:05:27;100048.38;;;6.24;100.00
64292;BME280;50628;51.008;13.658;2023-04-19T18:10:31;100053.81;;;6.19;100.00
64292;BME280;50628;51.008;13.658;2023-04-19T18:15:33;100057.97;;;6.22;100.00
64292;BME280;50628;51.008;13.658;2023-04-19T18:20:35;100054.09;;;5.99;100.00
64292;BME280;50628;51.008;13.658;2023-04-19T18:25:38;100055.78;;;6.30;100.00
64292;BME280;50628;51.008;13.658;2023-04-19T18:30:40;100053.03;;;6.33;100.00
64292;BME280;50628;51.008;13.658;2023-04-19T18:35:42;100056.06;;;6.10;100.00
64292;BME280;50628;51.008;13.658;2023-04-19T18:40:45;100048.31;;;6.10;100.00
64292;BME280;50628;51.008;13.658;2023-04-19T18:45:52;100055.59;;;5.87;100.00
64292;BME280;50628;51.008;13.658;2023-04-19T18:50:54;100053.59;;;5.92;100.00
64292;BME280;50628;51.008;13.658;2023-04-19T18:55:59;100055.13;;;5.80;100.00
64292;BME280;50628;51.008;13.658;2023-04-19T19:01:01;100058.97;;;5.73;100.00
64292;BME280;50628;51.008;13.658;2023-04-19T19:06:03;100065.63;;;5.77;100.00
64292;BME280;50628;51.008;13.658;2023-04-19T19:11:06;100058.88;;;5.59;100.00
64292;BME280;50628;51.008;13.658;2023-04-19T19:16:08;100061.63;;;5.56;100.00
64292;BME280;50628;51.008;13.658;2023-04-19T19:21:10;100064.28;;;5.54;100.00
64292;BME280;50628;51.008;13.658;2023-04-19T19:26:14;100060.22;;;5.50;100.00
64292;BME280;50628;51.008;13.658;2023-04-19T19:31:16;100066.97;;;5.37;100.00
64292;BME280;50628;51.008;13.658;2023-04-19T19:36:18;100063.72;;;5.33;100.00
64292;BME280;50628;51.008;13.658;2023-04-19T19:41:21;100067.97;;;5.34;100.00
64292;BME280;50628;51.008;13.658;2023-04-19T19:46:23;100055.78;;;5.36;100.00
64292;BME280;50628;51.008;13.658;2023-04-19T19:51:25;100054.38;;;5.31;100.00
64292;BME280;50628;51.008;13.658;2023-04-19T19:56:29;100057.97;;;5.28;100.00
64292;BME280;50628;51.008;13.658;2023-04-19T20:01:31;100047.56;;;5.30;100.00
64292;BME280;50628;51.008;13.658;2023-04-19T20:06:32;100048.56;;;5.27;100.00
64292;BME280;50628;51.008;13.658;2023-04-19T20:11:36;100046.63;;;5.31;100.00
64292;BME280;50628;51.008;13.658;2023-04-19T20:16:37;100044.47;;;5.23;100.00
64292;BME280;50628;51.008;13.658;2023-04-19T20:21:39;100041.66;;;5.28;100.00
64292;BME280;50628;51.008;13.658;2023-04-19T20:26:43;100042.41;;;5.46;100.00
64292;BME280;50628;51.008;13.658;2023-04-19T20:31:45;100043.81;;;5.35;100.00
64292;BME280;50628;51.008;13.658;2023-04-19T20:36:47;100044.41;;;5.25;100.00
64292;BME280;50628;51.008;13.658;2023-04-19T20:41:50;100050.63;;;5.36;100.00
64292;BME280;50628;51.008;13.658;2023-04-19T20:46:53;100045.41;;;5.22;100.00
64292;BME280;50628;51.008;13.658;2023-04-19T20:51:55;100048.28;;;5.16;100.00
64292;BME280;50628;51.008;13.658;2023-04-19T20:57:00;100049.53;;;5.09;100.00
64292;BME280;50628;51.008;13.658;2023-04-19T21:02:03;100052.03;;;4.94;100.00
64292;BME280;50628;51.008;13.658;2023-04-19T21:07:05;100041.19;;;5.04;100.00
64292;BME280;50628;51.008;13.658;2023-04-19T21:12:08;100042.13;;;5.03;100.00
64292;BME280;50628;51.008;13.658;2023-04-19T21:17:10;100050.53;;;5.06;100.00
64292;BME280;50628;51.008;13.658;2023-04-19T21:22:12;100046.69;;;4.97;100.00
64292;BME280;50628;51.008;13.658;2023-04-19T21:27:15;100044.44;;;4.91;100.00
64292;BME280;50628;51.008;13.658;2023-04-19T21:32:17;100048.16;;;4.86;100.00
64292;BME280;50628;51.008;13.658;2023-04-19T21:37:19;100038.34;;;4.76;100.00
64292;BME280;50628;51.008;13.658;2023-04-19T21:42:22;100040.47;;;4.68;100.00
64292;BME280;50628;51.008;13.658;2023-04-19T21:47:24;100038.72;;;4.69;100.00
64292;BME280;50628;51.008;13.658;2023-04-19T21:52:27;100050.88;;;4.49;100.00
64292;BME280;50628;51.008;13.658;2023-04-19T21:57:30;100054.88;;;4.55;100.00
64292;BME280;50628;51.008;13.658;2023-04-19T22:02:32;100042.38;;;4.65;100.00
64292;BME280;50628;51.008;13.658;2023-04-19T22:07:34;100047.00;;;4.58;100.00
64292;BME280;50628;51.008;13.658;2023-04-19T22:12:39;100050.44;;;4.59;100.00
64292;BME280;50628;51.008;13.658;2023-04-19T22:17:41;100043.16;;;4.83;100.00
64292;BME280;50628;51.008;13.658;2023-04-19T22:22:43;100037.41;;;4.77;100.00
64292;BME280;50628;51.008;13.658;2023-04-19T22:27:46;100036.94;;;4.87;100.00
64292;BME280;50628;51.008;13.658;2023-04-19T22:32:49;100034.56;;;4.66;100.00
64292;BME280;50628;51.008;13.658;2023-04-19T22:37:51;100043.03;;;4.68;100.00
64292;BME280;50628;51.008;13.658;2023-04-19T22:42:54;100039.13;;;4.61;100.00
64292;BME280;50628;51.008;13.658;2023-04-19T22:47:56;100030.63;;;4.59;100.00
64292;BME280;50628;51.008;13.658;2023-04-19T22:52:58;100031.13;;;4.66;100.00
64292;BME280;50628;51.008;13.658;2023-04-19T22:58:01;100035.00;;;4.74;100.00
64292;BME280;50628;51.008;13.658;2023-04-19T23:03:04;100029.81;;;4.59;100.00
64292;BME280;50628;51.008;13.658;2023-04-19T23:08:06;100030.16;;;4.68;100.00
64292;BME280;50628;51.008;13.658;2023-04-19T23:13:10;100028.75;;;4.78;100.00
64292;BME280;50628;51.008;13.658;2023-04-19T23:18:15;100024.16;;;4.68;100.00
64292;BME280;50628;51.008;13.658;2023-04-19T23:23:17;100027.44;;;4.71;100.00
64292;BME280;50628;51.008;13.658;2023-04-19T23:28:21;100025.56;;;4.73;100.00
64292;BME280;50628;51.008;13.658;2023-04-19T23:33:23;100026.09;;;4.80;100.00
64292;BME280;50628;51.008;13.658;2023-04-19T23:38:25;100026.88;;;4.82;100.00
64292;BME280;50628;51.008;13.658;2023-04-19T23:43:28;100028.97;;;4.91;100.00
64292;BME280;50628;51.008;13.658;2023-04-19T23:48:30;100029.75;;;5.09;100.00
64292;BME280;50628;51.008;13.658;2023-04-19T23:53:32;100034.84;;;4.93;100.00
64292;BME280;50628;51.008;13.658;2023-04-19T23:58:35;100023.94;;;4.88;100.00
